createdAt,value
2019-05-02T00:01:08.755Z,7.06
2019-05-02T00:03:42.925Z,7.15
2019-05-02T00:06:17.232Z,7.04
2019-05-02T00:08:50.868Z,7.00
2019-05-02T00:11:24.647Z,6.97
2019-05-02T00:13:59.126Z,6.89
2019-05-02T00:16:34.014Z,6.84
2019-05-02T00:19:09.150Z,6.80
2019-05-02T00:21:43.282Z,6.86
2019-05-02T00:24:16.821Z,6.85
2019-05-02T00:26:49.071Z,6.92
2019-05-02T00:29:23.730Z,6.92
2019-05-02T00:31:57.191Z,6.83
2019-05-02T00:34:32.613Z,6.72
2019-05-02T00:37:06.296Z,6.78
2019-05-02T00:39:39.407Z,6.77
2019-05-02T00:42:17.362Z,6.89
2019-05-02T00:44:48.272Z,6.91
2019-05-02T00:47:37.363Z,6.90
2019-05-02T00:50:12.518Z,6.82
2019-05-02T00:52:46.898Z,6.83
2019-05-02T00:55:20.220Z,6.84
2019-05-02T00:57:55.625Z,6.84
2019-05-02T01:00:29.053Z,6.72
2019-05-02T01:03:03.017Z,6.68
2019-05-02T01:05:38.516Z,6.62
2019-05-02T01:08:10.913Z,6.58
2019-05-02T01:10:43.997Z,6.64
2019-05-02T01:13:19.152Z,6.61
2019-05-02T01:15:52.263Z,6.67
2019-05-02T01:18:25.567Z,6.52
2019-05-02T01:21:02.793Z,6.54
2019-05-02T01:23:34.578Z,6.46
2019-05-02T01:26:09.581Z,6.51
2019-05-02T01:29:04.618Z,6.45
2019-05-02T01:32:01.360Z,6.48
2019-05-02T01:35:05.355Z,6.46
2019-05-02T01:38:15.234Z,6.36
2019-05-02T01:40:53.380Z,6.45
2019-05-02T01:43:31.938Z,6.44
2019-05-02T01:46:05.359Z,6.21
2019-05-02T01:48:40.316Z,6.28
2019-05-02T01:51:14.498Z,6.27
2019-05-02T01:53:47.990Z,6.35
2019-05-02T01:56:21.112Z,6.25
2019-05-02T01:58:57.759Z,6.33
2019-05-02T02:01:30.553Z,6.25
2019-05-02T02:04:04.618Z,6.21
2019-05-02T02:06:38.729Z,6.21
2019-05-02T02:09:13.193Z,6.18
2019-05-02T02:11:46.921Z,6.24
2019-05-02T02:14:20.888Z,6.07
2019-05-02T02:16:53.567Z,6.07
2019-05-02T02:19:34.685Z,6.00
2019-05-02T02:22:17.589Z,5.88
2019-05-02T02:25:10.035Z,5.89
2019-05-02T02:27:43.537Z,5.93
2019-05-02T02:30:17.623Z,5.86
2019-05-02T02:32:49.986Z,5.79
2019-05-02T02:35:22.657Z,5.69
2019-05-02T02:37:56.011Z,5.75
2019-05-02T02:40:33.608Z,5.60
2019-05-02T02:43:29.921Z,5.65
2019-05-02T02:46:03.164Z,5.48
2019-05-02T02:48:40.455Z,5.38
2019-05-02T02:51:22.021Z,5.43
2019-05-02T02:53:47.564Z,5.44
2019-05-02T02:56:20.363Z,5.29
2019-05-02T02:58:53.360Z,5.17
2019-05-02T03:01:29.455Z,5.25
2019-05-02T03:04:09.307Z,5.21
2019-05-02T03:06:38.281Z,5.07
2019-05-02T03:09:12.392Z,5.03
2019-05-02T03:12:04.624Z,5.06
2019-05-02T03:14:47.173Z,4.97
2019-05-02T03:17:20.293Z,4.97
2019-05-02T03:19:54.253Z,4.88
2019-05-02T03:22:27.605Z,4.85
2019-05-02T03:25:00.676Z,4.87
2019-05-02T03:27:37.521Z,4.85
2019-05-02T03:30:08.995Z,4.81
2019-05-02T03:32:40.850Z,4.70
2019-05-02T03:35:18.355Z,4.69
2019-05-02T03:37:51.417Z,4.77
2019-05-02T03:40:25.234Z,4.69
2019-05-02T03:42:59.346Z,4.70
2019-05-02T03:45:40.322Z,4.67
2019-05-02T03:48:07.813Z,4.56
2019-05-02T03:50:41.655Z,4.55
2019-05-02T03:53:17.678Z,4.56
2019-05-02T03:55:50.359Z,4.45
2019-05-02T03:58:23.305Z,4.47
2019-05-02T04:01:02.080Z,4.44
2019-05-02T04:03:34.041Z,4.60
2019-05-02T04:06:06.986Z,4.51
2019-05-02T04:08:41.988Z,4.65
2019-05-02T04:11:25.361Z,4.52
2019-05-02T04:13:59.574Z,4.47
2019-05-02T04:16:33.557Z,4.66
2019-05-02T04:19:06.568Z,4.64
2019-05-02T04:21:40.372Z,4.66
2019-05-02T04:24:15.847Z,4.57
2019-05-02T04:26:54.010Z,4.68
2019-05-02T04:29:31.222Z,4.76
2019-05-02T04:32:04.609Z,4.73
2019-05-02T04:34:36.390Z,4.67
2019-05-02T04:37:09.065Z,4.72
2019-05-02T04:39:42.267Z,4.76
2019-05-02T04:42:19.520Z,4.98
2019-05-02T04:45:11.679Z,4.87
2019-05-02T04:47:29.091Z,5.02
2019-05-02T04:50:07.693Z,4.95
2019-05-02T04:52:47.234Z,5.09
2019-05-02T04:55:21.380Z,5.17
2019-05-02T04:57:50.865Z,5.25
2019-05-02T05:00:29.259Z,5.27
2019-05-02T05:03:07.270Z,5.20
2019-05-02T05:05:40.340Z,5.49
2019-05-02T05:08:17.596Z,5.67
2019-05-02T05:10:48.920Z,5.73
2019-05-02T05:13:23.257Z,5.73
2019-05-02T05:15:58.222Z,5.87
2019-05-02T05:18:31.680Z,5.93
2019-05-02T05:21:10.360Z,6.10
2019-05-02T05:24:18.167Z,6.31
2019-05-02T05:26:54.541Z,6.44
2019-05-02T05:29:29.109Z,6.43
2019-05-02T05:32:05.911Z,6.55
2019-05-02T05:34:38.026Z,6.61
2019-05-02T05:37:13.320Z,6.73
2019-05-02T05:39:50.893Z,6.91
2019-05-02T05:42:23.409Z,7.01
2019-05-02T05:44:58.346Z,7.09
2019-05-02T05:47:31.401Z,7.25
2019-05-02T05:50:05.358Z,7.42
2019-05-02T05:52:42.286Z,7.55
2019-05-02T05:55:20.445Z,7.83
2019-05-02T05:57:59.497Z,8.06
2019-05-02T06:01:09.914Z,8.11
2019-05-02T06:03:44.637Z,8.09
2019-05-02T06:06:22.393Z,8.39
2019-05-02T06:08:54.104Z,8.45
2019-05-02T06:11:26.981Z,8.58
2019-05-02T06:13:58.883Z,8.60
2019-05-02T06:16:31.630Z,8.76
2019-05-02T06:19:05.553Z,8.73
2019-05-02T06:21:39.956Z,9.08
2019-05-02T06:24:15.805Z,9.29
2019-05-02T06:26:50.297Z,9.40
2019-05-02T06:29:23.555Z,9.26
2019-05-02T06:31:57.806Z,9.46
2019-05-02T06:34:31.204Z,9.72
2019-05-02T06:37:08.074Z,9.92
2019-05-02T06:39:39.600Z,9.89
2019-05-02T06:42:12.630Z,10.23
2019-05-02T06:44:46.554Z,10.56
2019-05-02T06:47:19.857Z,10.51
2019-05-02T06:49:56.124Z,10.57
2019-05-02T06:52:32.854Z,10.68
2019-05-02T06:55:03.546Z,10.87
2019-05-02T06:57:34.607Z,11.31
2019-05-02T07:00:08.709Z,11.39
2019-05-02T07:02:42.315Z,11.53
2019-05-02T07:05:16.290Z,11.24
2019-05-02T07:07:49.758Z,11.76
2019-05-02T07:10:25.431Z,11.97
2019-05-02T07:13:09.885Z,12.10
2019-05-02T07:15:50.140Z,11.52
2019-05-02T07:18:24.257Z,11.66
2019-05-02T07:20:57.635Z,12.54
2019-05-02T07:23:29.282Z,12.31
2019-05-02T07:26:01.849Z,12.36
2019-05-02T07:28:35.305Z,12.00
2019-05-02T07:31:12.163Z,12.97
2019-05-02T07:33:44.882Z,13.81
2019-05-02T07:36:18.123Z,13.64
2019-05-02T07:38:50.800Z,13.91
2019-05-02T07:41:29.045Z,13.88
2019-05-02T07:43:59.930Z,14.03
2019-05-02T07:46:34.262Z,14.76
2019-05-02T07:49:07.603Z,14.84
2019-05-02T07:51:38.613Z,15.46
2019-05-02T07:54:11.240Z,15.87
2019-05-02T07:56:44.123Z,16.16
2019-05-02T07:59:18.673Z,16.66
2019-05-02T08:01:52.268Z,16.15
2019-05-02T08:04:26.290Z,16.24
2019-05-02T08:06:59.402Z,16.83
2019-05-02T08:09:32.595Z,16.61
2019-05-02T08:12:06.550Z,16.40
2019-05-02T08:14:39.836Z,17.22
2019-05-02T08:17:17.479Z,17.32
2019-05-02T08:19:45.924Z,17.13
2019-05-02T08:22:19.268Z,17.20
2019-05-02T08:24:52.028Z,17.57
2019-05-02T08:27:43.255Z,18.19
2019-05-02T08:30:35.339Z,18.45
2019-05-02T08:33:05.997Z,18.23
2019-05-02T08:35:39.185Z,18.56
2019-05-02T08:38:17.567Z,19.08
2019-05-02T08:40:47.996Z,18.94
2019-05-02T08:43:21.690Z,18.96
2019-05-02T08:45:53.436Z,18.53
2019-05-02T08:48:26.441Z,18.60
2019-05-02T08:50:59.470Z,19.32
2019-05-02T08:53:32.315Z,19.46
2019-05-02T08:56:05.137Z,19.92
2019-05-02T08:58:37.528Z,20.06
2019-05-02T09:01:13.647Z,20.04
2019-05-02T09:03:59.756Z,19.63
2019-05-02T09:06:22.347Z,20.23
2019-05-02T09:08:54.430Z,20.07
2019-05-02T09:11:27.527Z,20.79
2019-05-02T09:14:02.072Z,21.05
2019-05-02T09:16:35.618Z,21.18
2019-05-02T09:19:08.473Z,20.91
2019-05-02T09:21:42.909Z,21.51
2019-05-02T09:24:21.123Z,21.08
2019-05-02T09:26:51.941Z,21.23
2019-05-02T09:29:25.286Z,21.15
2019-05-02T09:31:58.466Z,21.74
2019-05-02T09:34:31.894Z,22.13
2019-05-02T09:37:05.211Z,21.95
2019-05-02T09:39:38.545Z,21.64
2019-05-02T09:42:15.129Z,21.22
2019-05-02T09:44:47.934Z,21.82
2019-05-02T09:47:53.863Z,22.72
2019-05-02T09:50:20.679Z,22.42
2019-05-02T09:52:52.566Z,22.72
2019-05-02T09:55:26.845Z,22.56
2019-05-02T09:58:02.495Z,23.07
2019-05-02T10:00:43.121Z,22.96
2019-05-02T10:03:17.368Z,22.51
2019-05-02T10:05:52.311Z,22.63
2019-05-02T10:08:25.878Z,23.22
2019-05-02T10:10:59.437Z,23.18
2019-05-02T10:13:33.710Z,23.09
2019-05-02T10:16:07.631Z,22.92
2019-05-02T10:18:42.969Z,23.15
2019-05-02T10:21:17.270Z,23.52
2019-05-02T10:23:58.556Z,23.09
2019-05-02T10:26:26.297Z,23.70
2019-05-02T10:28:59.274Z,23.48
2019-05-02T10:31:37.425Z,23.55
2019-05-02T10:34:08.412Z,23.38
2019-05-02T10:36:45.189Z,24.04
2019-05-02T10:39:17.444Z,23.42
2019-05-02T10:41:52.633Z,23.32
2019-05-02T10:44:27.207Z,24.08
2019-05-02T10:47:00.230Z,24.08
2019-05-02T10:49:48.642Z,24.05
2019-05-02T10:52:29.296Z,23.78
2019-05-02T10:54:55.431Z,24.22
2019-05-02T10:57:28.134Z,24.24
2019-05-02T11:00:03.233Z,23.50
2019-05-02T11:02:53.669Z,24.39
2019-05-02T11:05:27.753Z,23.89
2019-05-02T11:08:06.080Z,22.72
2019-05-02T11:10:36.913Z,22.64
2019-05-02T11:13:15.483Z,22.81
2019-05-02T11:16:12.382Z,23.03
2019-05-02T11:18:56.283Z,22.69
2019-05-02T11:21:29.565Z,22.37
2019-05-02T11:24:02.885Z,23.95
2019-05-02T11:26:36.897Z,23.86
2019-05-02T11:29:12.122Z,23.80
2019-05-02T11:31:45.306Z,23.29
2019-05-02T11:34:19.315Z,23.95
2019-05-02T11:36:52.693Z,23.57
2019-05-02T11:39:35.716Z,22.31
2019-05-02T11:42:02.107Z,22.15
2019-05-02T11:44:35.955Z,22.29
2019-05-02T11:47:09.606Z,22.99
2019-05-02T11:49:46.785Z,23.76
2019-05-02T11:52:18.219Z,23.69
2019-05-02T11:57:28.923Z,22.38
2019-05-02T12:00:03.665Z,22.36
2019-05-02T12:02:58.132Z,23.05
2019-05-02T12:05:39.196Z,22.68
2019-05-02T12:08:12.340Z,23.03
2019-05-02T12:10:46.115Z,23.29
2019-05-02T12:13:19.214Z,23.66
2019-05-02T12:15:52.994Z,23.99
2019-05-02T12:18:26.842Z,24.70
2019-05-02T12:21:02.615Z,24.26
2019-05-02T12:23:36.474Z,24.14
2019-05-02T12:26:09.546Z,23.59
2019-05-02T12:28:42.956Z,23.11
2019-05-02T12:31:32.498Z,22.95
2019-05-02T12:34:07.439Z,23.93
2019-05-02T12:36:42.613Z,23.97
2019-05-02T12:39:15.751Z,24.35
2019-05-02T12:41:49.676Z,24.01
2019-05-02T12:44:22.940Z,22.63
2019-05-02T12:46:57.186Z,22.36
2019-05-02T12:49:32.476Z,22.41
2019-05-02T12:52:05.817Z,22.00
2019-05-02T12:54:41.566Z,21.84
2019-05-02T12:57:14.792Z,21.97
2019-05-02T12:59:48.429Z,22.09
2019-05-02T13:02:29.068Z,22.38
2019-05-02T13:05:02.458Z,23.16
2019-05-02T13:07:36.080Z,22.91
2019-05-02T13:10:12.782Z,22.73
2019-05-02T13:12:46.536Z,22.48
2019-05-02T13:15:22.016Z,21.97
2019-05-02T13:17:55.870Z,22.39
2019-05-02T13:20:29.434Z,21.66
2019-05-02T13:23:27.436Z,22.30
2019-05-02T13:25:59.485Z,23.13
2019-05-02T13:28:33.346Z,23.71
2019-05-02T13:31:12.978Z,21.88
2019-05-02T13:33:56.197Z,22.12
2019-05-02T13:36:44.155Z,22.07
2019-05-02T13:39:26.202Z,21.39
2019-05-02T13:42:01.631Z,22.56
2019-05-02T13:44:37.716Z,21.98
2019-05-02T13:47:12.316Z,21.92
2019-05-02T13:49:54.049Z,21.30
2019-05-02T13:52:22.648Z,21.54
2019-05-02T13:54:56.631Z,21.76
2019-05-02T13:57:36.481Z,22.44
2019-05-02T14:00:06.643Z,22.28
2019-05-02T14:02:43.066Z,22.03
2019-05-02T14:05:18.209Z,21.98
2019-05-02T14:07:57.084Z,22.11
2019-05-02T14:10:39.362Z,22.77
2019-05-02T14:13:07.849Z,23.68
2019-05-02T14:15:42.076Z,23.41
2019-05-02T14:18:14.602Z,23.22
2019-05-02T14:20:47.671Z,22.76
2019-05-02T14:23:22.109Z,23.54
2019-05-02T14:25:55.982Z,23.37
2019-05-02T14:28:32.275Z,22.92
2019-05-02T14:31:03.925Z,23.20
2019-05-02T14:33:38.122Z,22.63
2019-05-02T14:36:11.723Z,22.50
2019-05-02T14:38:44.591Z,22.70
2019-05-02T14:41:29.978Z,23.38
2019-05-02T14:44:03.491Z,23.60
2019-05-02T14:46:39.404Z,23.14
2019-05-02T14:49:12.129Z,24.12
2019-05-02T14:51:46.426Z,24.52
2019-05-02T14:54:19.223Z,23.13
2019-05-02T14:57:03.163Z,22.43
2019-05-02T14:59:36.196Z,22.98
2019-05-02T15:02:14.039Z,22.96
2019-05-02T15:04:48.922Z,22.63
2019-05-02T15:07:26.586Z,22.07
2019-05-02T15:10:02.683Z,22.99
2019-05-02T15:12:32.862Z,23.42
2019-05-02T15:15:06.110Z,23.15
2019-05-02T15:17:39.205Z,23.28
2019-05-02T15:20:13.252Z,22.40
2019-05-02T15:22:47.199Z,22.63
2019-05-02T15:25:21.791Z,22.86
2019-05-02T15:27:58.774Z,22.79
2019-05-02T15:30:29.714Z,22.66
2019-05-02T15:33:08.150Z,22.56
2019-05-02T15:35:57.384Z,22.54
2019-05-02T15:38:28.435Z,22.15
2019-05-02T15:41:05.004Z,22.16
2019-05-02T15:43:39.380Z,22.22
2019-05-02T15:46:15.785Z,22.72
2019-05-02T15:48:47.097Z,22.49
2019-05-02T15:51:25.986Z,22.75
2019-05-02T15:54:08.401Z,22.84
2019-05-02T15:57:00.447Z,22.53
2019-05-02T15:59:42.346Z,22.43
2019-05-02T16:02:17.551Z,22.67
2019-05-02T16:04:48.889Z,22.61
2019-05-02T16:07:22.475Z,22.44
2019-05-02T16:09:59.965Z,22.48
2019-05-02T16:12:31.934Z,21.62
2019-05-02T16:15:13.163Z,22.67
2019-05-02T16:17:42.295Z,23.19
2019-05-02T16:20:24.193Z,23.39
2019-05-02T16:22:58.313Z,22.60
2019-05-02T16:25:32.042Z,22.10
2019-05-02T16:28:06.176Z,22.57
2019-05-02T16:30:44.127Z,22.04
2019-05-02T16:33:19.707Z,22.39
2019-05-02T16:35:52.844Z,23.32
2019-05-02T16:38:26.744Z,23.83
2019-05-02T16:41:04.031Z,23.58
2019-05-02T16:43:36.545Z,22.96
2019-05-02T16:46:11.925Z,22.61
2019-05-02T16:48:45.618Z,22.18
2019-05-02T16:51:31.058Z,22.82
2019-05-02T16:53:56.047Z,22.51
2019-05-02T16:56:29.274Z,21.47
2019-05-02T16:59:02.538Z,21.38
2019-05-02T17:01:35.986Z,21.11
2019-05-02T17:04:09.611Z,20.96
2019-05-02T17:06:42.979Z,20.65
2019-05-02T17:09:33.861Z,20.36
2019-05-02T17:12:13.094Z,19.75
2019-05-02T17:14:53.428Z,19.60
2019-05-02T17:17:22.198Z,19.27
2019-05-02T17:19:55.748Z,18.94
2019-05-02T17:22:29.098Z,18.97
2019-05-02T17:25:05.802Z,19.03
2019-05-02T17:27:36.679Z,18.27
2019-05-02T17:30:08.367Z,18.23
2019-05-02T17:32:41.584Z,18.29
2019-05-02T17:35:15.232Z,18.32
2019-05-02T17:37:49.845Z,18.08
2019-05-02T17:40:26.026Z,17.58
2019-05-02T17:43:03.041Z,17.54
2019-05-02T17:45:38.609Z,17.52
2019-05-02T17:48:16.389Z,17.28
2019-05-02T17:51:02.117Z,17.23
2019-05-02T17:53:41.479Z,17.20
2019-05-02T17:56:12.978Z,17.10
2019-05-02T17:58:53.258Z,16.92
2019-05-02T18:01:33.386Z,16.70
2019-05-02T18:04:06.784Z,16.55
2019-05-02T18:06:37.675Z,16.48
2019-05-02T18:09:12.388Z,16.39
2019-05-02T18:11:45.460Z,16.39
2019-05-02T18:14:21.056Z,16.32
2019-05-02T18:16:55.696Z,16.18
2019-05-02T18:19:31.490Z,15.97
2019-05-02T18:22:08.304Z,16.15
2019-05-02T18:24:44.759Z,16.08
2019-05-02T18:27:15.699Z,15.90
2019-05-02T18:29:49.172Z,15.55
2019-05-02T18:32:25.083Z,15.53
2019-05-02T18:35:01.654Z,15.40
2019-05-02T18:37:32.585Z,15.08
2019-05-02T18:40:06.971Z,15.06
2019-05-02T18:42:42.300Z,14.96
2019-05-02T18:45:26.852Z,15.01
2019-05-02T18:48:02.430Z,15.01
2019-05-02T18:50:46.355Z,15.00
2019-05-02T18:53:18.579Z,15.06
2019-05-02T18:55:51.929Z,15.03
2019-05-02T18:58:26.447Z,14.98
2019-05-02T19:01:00.051Z,14.83
2019-05-02T19:03:34.286Z,14.86
2019-05-02T19:06:07.464Z,14.81
2019-05-02T19:08:49.498Z,14.76
2019-05-02T19:11:22.146Z,14.71
2019-05-02T19:13:56.253Z,14.72
2019-05-02T19:16:31.796Z,14.71
2019-05-02T19:19:07.641Z,14.76
2019-05-02T19:21:41.824Z,14.71
2019-05-02T19:24:15.804Z,14.60
2019-05-02T19:26:49.825Z,14.53
2019-05-02T19:29:32.605Z,14.47
2019-05-02T19:32:12.227Z,14.22
2019-05-02T19:34:46.166Z,14.08
2019-05-02T19:37:21.659Z,14.02
2019-05-02T19:39:56.848Z,14.04
2019-05-02T19:42:30.863Z,13.86
2019-05-02T19:45:11.415Z,13.77
2019-05-02T19:47:38.683Z,13.72
2019-05-02T19:50:43.097Z,13.70
2019-05-02T19:53:18.088Z,13.68
2019-05-02T19:55:51.857Z,13.66
2019-05-02T19:58:26.645Z,13.63
2019-05-02T20:01:02.156Z,13.48
2019-05-02T20:03:36.102Z,13.49
2019-05-02T20:06:09.321Z,13.59
2019-05-02T20:08:42.622Z,13.74
2019-05-02T20:11:16.052Z,13.68
2019-05-02T20:13:50.002Z,13.83
2019-05-02T20:16:45.898Z,14.07
2019-05-02T20:19:23.038Z,14.16
2019-05-02T20:22:08.418Z,14.13
2019-05-02T20:25:00.312Z,13.99
2019-05-02T20:27:32.978Z,14.06
2019-05-02T20:30:07.154Z,14.05
2019-05-02T20:32:40.335Z,13.95
2019-05-02T20:35:12.892Z,13.92
2019-05-02T20:37:46.640Z,13.90
2019-05-02T20:40:32.004Z,13.88
2019-05-02T20:43:05.734Z,13.73
2019-05-02T20:45:38.821Z,13.61
2019-05-02T20:48:12.005Z,13.63
2019-05-02T20:50:46.555Z,13.64
2019-05-02T20:53:28.781Z,13.48
2019-05-02T20:55:55.376Z,13.38
2019-05-02T20:58:29.044Z,13.24
2019-05-02T21:01:08.184Z,13.24
2019-05-02T21:03:37.098Z,13.21
2019-05-02T21:06:37.639Z,13.14
2019-05-02T21:09:22.680Z,12.95
2019-05-02T21:12:02.041Z,12.82
2019-05-02T21:14:38.161Z,12.87
2019-05-02T21:17:14.714Z,12.71
2019-05-02T21:19:49.079Z,12.73
2019-05-02T21:22:27.784Z,12.68
2019-05-02T21:25:02.491Z,12.74
2019-05-02T21:27:36.708Z,12.66
2019-05-02T21:30:12.153Z,12.47
2019-05-02T21:32:48.520Z,12.62
2019-05-02T21:35:22.552Z,12.56
2019-05-02T21:37:55.963Z,12.55
2019-05-02T21:40:26.992Z,12.60
2019-05-02T21:42:59.689Z,12.45
2019-05-02T21:45:33.890Z,12.54
2019-05-02T21:48:07.738Z,12.50
2019-05-02T21:50:50.022Z,12.45
2019-05-02T21:53:29.806Z,12.36
2019-05-02T21:56:21.764Z,12.34
2019-05-02T21:59:08.507Z,12.37
2019-05-02T22:01:54.070Z,12.35
2019-05-02T22:04:27.891Z,12.42
2019-05-02T22:07:01.239Z,12.32
2019-05-02T22:09:36.855Z,12.27
2019-05-02T22:12:09.455Z,12.39
2019-05-02T22:14:42.207Z,12.17
2019-05-02T22:17:17.115Z,12.26
2019-05-02T22:19:52.420Z,12.12
2019-05-02T22:22:25.896Z,12.09
2019-05-02T22:24:58.480Z,12.07
2019-05-02T22:27:32.732Z,12.11
2019-05-02T22:30:07.140Z,11.94
2019-05-02T22:32:42.617Z,11.94
2019-05-02T22:35:15.627Z,12.01
2019-05-02T22:37:50.579Z,12.02
2019-05-02T22:40:24.731Z,11.91
2019-05-02T22:42:58.631Z,11.91
2019-05-02T22:45:32.311Z,11.86
2019-05-02T22:48:05.831Z,11.89
2019-05-02T22:50:39.632Z,11.75
2019-05-02T22:53:14.003Z,11.77
2019-05-02T22:55:47.432Z,11.80
2019-05-02T22:58:19.660Z,11.78
2019-05-02T23:00:53.022Z,11.76
2019-05-02T23:03:26.420Z,11.76
2019-05-02T23:05:58.097Z,11.66
2019-05-02T23:08:30.463Z,11.63
2019-05-02T23:11:04.032Z,11.63
2019-05-02T23:13:37.080Z,11.56
2019-05-02T23:16:09.763Z,11.63
2019-05-02T23:18:43.264Z,11.54
2019-05-02T23:21:16.496Z,11.62
2019-05-02T23:23:49.528Z,11.62
2019-05-02T23:26:32.157Z,11.57
2019-05-02T23:29:06.006Z,11.53
2019-05-02T23:31:39.831Z,11.56
2019-05-02T23:34:13.971Z,11.54
2019-05-02T23:36:47.863Z,11.43
2019-05-02T23:39:20.838Z,11.37
2019-05-02T23:41:53.504Z,11.30
2019-05-02T23:44:27.139Z,11.27
2019-05-02T23:47:02.226Z,11.32
2019-05-02T23:49:35.858Z,11.31
2019-05-02T23:52:11.645Z,11.26
2019-05-02T23:54:52.071Z,11.24
2019-05-02T23:57:20.087Z,11.19
2019-05-02T23:59:52.004Z,11.19
